Pineville, Arkansas
Current Conditions -  °F | °C
As of 10:53 AM on Tuesday 21 Oct 2014 (Local Time) from KBPK Reporting Station
Few Clouds Few Clouds  
Wind Chill: 59°   Ceiling: Unl
Heat Index: 59°   Visibility: 8mi
Dew Point: 57°   Wind: 0mph
Humidity: 93%   Direction: NA
Pressure: 30.14"   Gusts: NA
Location:  36.16°N, 92.11°W
Report Text: KBPK 211553Z AUTO 00000KT 8SM FEW002 15/14 A3014 RMK AO2 SLP204 T01500139
Loading
Personal Weather Stations






























Interactive Weather Map
Tropical Storm Tracking
New forecast layout! Learn more

10-Day Weather Forecast

Advertisements
Track Severe Weather on mobile